createdAt,value
2022-09-01T00:00:07.442Z,99990.19
2022-09-01T00:02:36.307Z,99995.13
2022-09-01T00:05:08.205Z,99989.00
2022-09-01T00:07:36.612Z,99988.00
2022-09-01T00:10:08.778Z,99994.13
2022-09-01T00:12:37.732Z,100002.72
2022-09-01T00:15:09.874Z,99994.47
2022-09-01T00:17:38.121Z,100010.47
2022-09-01T00:20:07.359Z,99996.06
2022-09-01T00:22:36.662Z,100006.28
2022-09-01T00:25:06.669Z,99994.53
2022-09-01T00:27:34.370Z,99996.00
2022-09-01T00:30:02.744Z,99997.47
2022-09-01T00:32:32.149Z,99999.13
2022-09-01T00:35:00.318Z,100000.94
2022-09-01T00:37:29.353Z,99989.19
2022-09-01T00:39:57.350Z,99988.00
2022-09-01T00:42:25.660Z,99978.69
2022-09-01T00:44:54.644Z,99958.03
2022-09-01T00:47:22.795Z,99960.97
2022-09-01T00:49:52.836Z,99966.28
2022-09-01T00:52:29.649Z,99954.69
2022-09-01T00:55:02.447Z,99952.22
2022-09-01T00:57:31.329Z,99962.63
2022-09-01T01:00:06.073Z,99935.94
2022-09-01T01:02:34.166Z,99963.09
2022-09-01T01:05:04.356Z,99958.44
2022-09-01T01:07:41.892Z,99958.59
2022-09-01T01:10:16.775Z,99947.94
2022-09-01T01:12:45.524Z,99946.38
2022-09-01T01:15:14.576Z,99935.06
2022-09-01T01:17:42.774Z,99930.88
2022-09-01T01:20:33.948Z,99929.50
2022-09-01T01:23:18.620Z,99909.75
2022-09-01T01:25:49.530Z,99902.25
2022-09-01T01:28:31.768Z,99906.38
2022-09-01T01:31:12.451Z,99903.53
2022-09-01T01:33:47.950Z,99888.28
2022-09-01T01:36:31.811Z,99886.91
2022-09-01T01:39:07.622Z,99887.84
2022-09-01T01:41:37.022Z,99875.88
2022-09-01T01:44:05.956Z,99880.78
2022-09-01T01:46:38.007Z,99862.22
2022-09-01T01:49:06.208Z,99869.91
2022-09-01T01:51:35.160Z,99866.69
2022-09-01T01:54:08.015Z,99861.81
2022-09-01T01:56:39.510Z,99866.75
2022-09-01T01:59:08.199Z,99858.63
2022-09-01T02:01:37.496Z,99868.66
2022-09-01T02:04:06.308Z,99864.44
2022-09-01T02:06:36.281Z,99862.88
2022-09-01T02:09:05.512Z,99863.97
2022-09-01T02:11:36.441Z,99849.53
2022-09-01T02:14:07.365Z,99851.06
2022-09-01T02:16:37.975Z,99841.75
2022-09-01T02:19:09.501Z,99839.03
2022-09-01T02:21:37.569Z,99838.94
2022-09-01T02:24:09.348Z,99837.84
2022-09-01T02:26:41.497Z,99835.53
2022-09-01T02:29:22.309Z,99838.25
2022-09-01T02:31:53.397Z,99825.06
2022-09-01T02:34:32.148Z,99835.78
2022-09-01T02:37:00.212Z,99827.19
2022-09-01T02:39:35.777Z,99827.19
2022-09-01T02:42:03.889Z,99823.56
2022-09-01T02:44:32.742Z,99826.84
2022-09-01T02:47:02.585Z,99827.31
2022-09-01T02:49:30.940Z,99821.63
2022-09-01T02:52:02.172Z,99817.78
2022-09-01T02:54:33.345Z,99821.91
2022-09-01T02:57:03.776Z,99822.13
2022-09-01T02:59:32.864Z,99824.44
2022-09-01T03:02:02.227Z,99814.63
2022-09-01T03:04:34.407Z,99810.34
2022-09-01T03:07:06.983Z,99810.97
2022-09-01T03:09:36.063Z,99815.25
2022-09-01T03:12:07.759Z,99806.00
2022-09-01T03:14:36.141Z,99812.56
2022-09-01T03:17:04.222Z,99811.31
2022-09-01T03:19:40.723Z,99813.34
2022-09-01T03:22:09.822Z,99810.25
2022-09-01T03:24:39.736Z,99818.78
2022-09-01T03:27:08.269Z,99816.88
2022-09-01T03:29:37.048Z,99811.06
2022-09-01T03:32:06.122Z,99811.28
2022-09-01T03:34:35.261Z,99807.56
2022-09-01T03:37:10.668Z,99800.78
2022-09-01T03:39:39.046Z,99792.69
2022-09-01T03:42:10.010Z,99797.31
2022-09-01T03:44:41.857Z,99788.22
2022-09-01T03:47:15.908Z,99795.94
2022-09-01T03:49:44.450Z,99787.88
2022-09-01T03:52:14.117Z,99791.31
2022-09-01T03:54:42.401Z,99788.94
2022-09-01T03:57:11.312Z,99793.41
2022-09-01T03:59:45.988Z,99776.31
2022-09-01T04:02:14.337Z,99776.53
2022-09-01T04:04:42.436Z,99791.53
2022-09-01T04:07:10.478Z,99777.19
2022-09-01T04:09:47.309Z,99774.53
2022-09-01T04:12:16.672Z,99772.03
2022-09-01T04:14:44.896Z,99775.44
2022-09-01T04:17:31.609Z,99768.84
2022-09-01T04:19:59.964Z,99765.34
2022-09-01T04:22:30.770Z,99764.53
2022-09-01T04:25:00.123Z,99762.53
2022-09-01T04:27:28.684Z,99756.53
2022-09-01T04:29:58.010Z,99756.56
2022-09-01T04:32:54.732Z,99754.31
2022-09-01T04:35:28.755Z,99762.00
2022-09-01T04:37:56.708Z,99748.28
2022-09-01T04:40:25.836Z,99749.81
2022-09-01T04:42:55.792Z,99746.94
2022-09-01T04:45:25.858Z,99744.84
2022-09-01T04:47:55.771Z,99745.78
2022-09-01T04:50:24.287Z,99736.47
2022-09-01T04:52:54.036Z,99737.16
2022-09-01T04:55:23.105Z,99741.13
2022-09-01T04:57:52.382Z,99727.25
2022-09-01T05:00:27.180Z,99731.69
2022-09-01T05:03:05.195Z,99724.91
2022-09-01T05:05:47.097Z,99697.06
2022-09-01T05:08:20.923Z,99709.50
2022-09-01T05:10:57.552Z,99713.47
2022-09-01T05:13:28.060Z,99709.41
2022-09-01T05:16:14.520Z,99705.44
2022-09-01T05:18:48.321Z,99716.50
2022-09-01T05:21:22.607Z,99714.38
2022-09-01T05:23:53.337Z,99706.72
2022-09-01T05:26:25.602Z,99704.84
2022-09-01T05:28:57.303Z,99685.50
2022-09-01T05:31:28.793Z,99709.16
2022-09-01T05:33:58.793Z,99702.38
2022-09-01T05:36:28.567Z,99699.69
2022-09-01T05:38:57.676Z,99703.22
2022-09-01T05:41:25.933Z,99696.44
2022-09-01T05:44:00.835Z,99688.84
2022-09-01T05:46:30.488Z,99691.91
2022-09-01T05:48:58.779Z,99688.63
2022-09-01T05:51:46.443Z,99690.38
2022-09-01T05:54:22.181Z,99678.16
2022-09-01T05:56:55.399Z,99684.44
2022-09-01T05:59:25.820Z,99683.06
2022-09-01T06:01:56.229Z,99677.69
2022-09-01T06:04:28.124Z,99683.63
2022-09-01T06:07:06.803Z,99669.19
2022-09-01T06:09:42.246Z,99679.19
2022-09-01T06:12:18.793Z,99674.06
2022-09-01T06:14:49.229Z,99673.00
2022-09-01T06:17:23.890Z,99676.13
2022-09-01T06:19:54.234Z,99674.47
2022-09-01T06:22:24.563Z,99667.81
2022-09-01T06:24:58.239Z,99655.22
2022-09-01T06:27:31.934Z,99667.78
2022-09-01T06:30:03.610Z,99668.59
2022-09-01T06:32:35.883Z,99649.81
2022-09-01T06:35:05.270Z,99661.53
2022-09-01T06:37:35.154Z,99657.56
2022-09-01T06:40:04.555Z,99654.53
2022-09-01T06:42:35.859Z,99650.84
2022-09-01T06:45:05.054Z,99652.19
2022-09-01T06:47:33.483Z,99648.16
2022-09-01T06:53:35.599Z,99644.66
2022-09-01T06:58:32.104Z,99645.94
2022-09-01T07:01:00.121Z,99647.66
2022-09-01T07:03:28.305Z,99655.69
2022-09-01T07:06:01.420Z,99651.50
2022-09-01T07:08:30.529Z,99653.53
2022-09-01T07:14:25.901Z,99644.34
2022-09-01T07:17:22.614Z,99640.59
2022-09-01T07:19:51.535Z,99639.47
2022-09-01T07:25:14.008Z,99636.78
2022-09-01T07:27:51.257Z,99631.63
2022-09-01T07:30:24.039Z,99630.81
2022-09-01T07:32:55.146Z,99627.13
2022-09-01T07:35:23.365Z,99620.94
2022-09-01T07:43:33.550Z,99617.81
2022-09-01T07:49:29.645Z,99632.50
2022-09-01T07:51:47.298Z,99622.63
2022-09-01T07:54:15.476Z,99628.63
2022-09-01T07:56:43.882Z,99623.03
2022-09-01T07:59:14.817Z,99620.28
2022-09-01T08:01:43.774Z,99619.81
2022-09-01T08:04:11.961Z,99619.72
2022-09-01T08:06:40.901Z,99619.00
2022-09-01T08:09:25.349Z,99621.34
2022-09-01T08:12:02.130Z,99617.41
2022-09-01T08:14:35.197Z,99612.25
2022-09-01T08:19:56.399Z,99610.13
2022-09-01T08:22:29.159Z,99605.25
2022-09-01T08:24:57.159Z,99608.97
2022-09-01T08:27:25.295Z,99606.94
2022-09-01T08:29:54.439Z,99604.19
2022-09-01T08:32:23.152Z,99614.31
2022-09-01T08:34:51.469Z,99608.75
2022-09-01T08:37:23.124Z,99605.81
2022-09-01T08:39:51.200Z,99603.34
2022-09-01T08:42:34.388Z,99601.06
2022-09-01T08:45:30.683Z,99607.41
2022-09-01T08:51:21.586Z,99601.09
2022-09-01T08:54:12.652Z,99596.88
2022-09-01T08:56:41.853Z,99592.22
2022-09-01T08:59:14.899Z,99593.00
2022-09-01T09:02:00.322Z,99594.28
2022-09-01T09:04:52.847Z,99595.25
2022-09-01T09:07:51.297Z,99582.78
2022-09-01T09:10:25.036Z,99588.06
2022-09-01T09:13:18.105Z,99574.47
2022-09-01T09:15:49.167Z,99574.69
2022-09-01T09:18:39.107Z,99572.97
2022-09-01T09:21:47.385Z,99574.81
2022-09-01T09:24:50.803Z,99569.69
2022-09-01T09:27:26.694Z,99567.34
2022-09-01T09:30:09.578Z,99550.00
2022-09-01T09:35:47.246Z,99548.56
2022-09-01T09:38:21.012Z,99553.41
2022-09-01T09:41:17.172Z,99555.78
2022-09-01T09:43:58.606Z,99553.25
2022-09-01T09:46:34.395Z,99550.50
2022-09-01T09:49:16.601Z,99557.22
2022-09-01T09:51:50.052Z,99546.50
2022-09-01T09:54:23.048Z,99543.94
2022-09-01T09:57:08.749Z,99557.81
2022-09-01T10:00:00.652Z,99552.63
2022-09-01T10:02:36.126Z,99552.84
2022-09-01T10:05:42.807Z,99555.91
2022-09-01T10:08:46.489Z,99556.03
2022-09-01T10:11:35.888Z,99552.34
2022-09-01T10:14:13.816Z,99550.81
2022-09-01T10:17:16.116Z,99553.28
2022-09-01T10:19:55.144Z,99540.19
2022-09-01T10:22:25.633Z,99537.06
2022-09-01T10:24:53.590Z,99545.91
2022-09-01T10:27:31.506Z,99546.09
2022-09-01T10:30:23.972Z,99550.28
2022-09-01T10:33:11.213Z,99518.63
2022-09-01T10:36:02.391Z,99545.06
2022-09-01T10:38:31.544Z,99544.19
2022-09-01T10:41:14.711Z,99546.28
2022-09-01T10:43:47.110Z,99548.09
2022-09-01T10:46:38.832Z,99548.34
2022-09-01T10:49:32.572Z,99539.16
2022-09-01T10:52:06.560Z,99547.72
2022-09-01T10:55:01.784Z,99536.84
2022-09-01T10:57:55.843Z,99542.94
2022-09-01T11:00:40.009Z,99547.44
2022-09-01T11:03:35.169Z,99536.63
2022-09-01T11:06:12.589Z,99541.44
2022-09-01T11:09:02.069Z,99540.31
2022-09-01T11:11:47.270Z,99534.88
2022-09-01T11:14:23.806Z,99525.13
2022-09-01T11:17:26.732Z,99527.50
2022-09-01T11:20:28.038Z,99526.34
2022-09-01T11:23:31.520Z,99521.47
2022-09-01T11:26:19.847Z,99516.56
2022-09-01T11:28:50.295Z,99517.06
2022-09-01T11:31:31.720Z,99508.94
2022-09-01T11:34:26.258Z,99513.44
2022-09-01T11:37:01.729Z,99505.28
2022-09-01T11:39:43.102Z,99499.53
2022-09-01T11:42:15.153Z,99497.09
2022-09-01T11:44:56.034Z,99495.31
2022-09-01T11:47:36.994Z,99500.03
2022-09-01T11:50:17.587Z,99494.25
2022-09-01T11:52:55.741Z,99497.59
2022-09-01T11:55:46.739Z,99495.31
2022-09-01T11:58:31.423Z,99482.63
2022-09-01T12:03:42.765Z,99472.75
2022-09-01T12:06:14.131Z,99480.34
2022-09-01T12:08:52.566Z,99483.41
2022-09-01T12:11:24.283Z,99489.50
2022-09-01T12:14:01.930Z,99493.34
2022-09-01T12:16:36.611Z,99487.34
2022-09-01T12:19:07.888Z,99490.66
2022-09-01T12:21:43.492Z,99488.94
2022-09-01T12:24:22.293Z,99497.34
2022-09-01T12:26:58.379Z,99490.28
2022-09-01T12:29:31.498Z,99484.00
2022-09-01T12:32:02.116Z,99476.81
2022-09-01T12:34:41.638Z,99491.81
2022-09-01T12:37:23.499Z,99489.81
2022-09-01T12:39:58.025Z,99480.06
2022-09-01T12:42:38.924Z,99485.56
2022-09-01T12:45:12.943Z,99488.38
2022-09-01T12:47:50.253Z,99490.59
2022-09-01T12:50:18.817Z,99490.16
2022-09-01T12:52:52.345Z,99490.25
2022-09-01T12:58:13.074Z,99485.72
2022-09-01T13:01:00.581Z,99482.94
2022-09-01T13:06:15.903Z,99482.84
2022-09-01T13:08:44.573Z,99477.84
2022-09-01T13:11:20.192Z,99482.38
2022-09-01T13:13:49.356Z,99484.47
2022-09-01T13:16:17.583Z,99474.56
2022-09-01T13:21:36.745Z,99495.25
2022-09-01T13:24:07.460Z,99493.47
2022-09-01T13:26:35.565Z,99495.78
2022-09-01T13:29:03.978Z,99485.09
2022-09-01T13:31:32.775Z,99513.47
2022-09-01T13:34:22.225Z,99528.91
2022-09-01T13:36:52.692Z,99510.53
2022-09-01T13:39:22.842Z,99498.31
2022-09-01T13:41:51.225Z,99505.97
2022-09-01T13:44:19.633Z,99509.09
2022-09-01T13:50:04.973Z,99519.16
2022-09-01T13:52:24.853Z,99524.78
2022-09-01T13:55:12.962Z,99512.56
2022-09-01T13:57:40.938Z,99510.28
2022-09-01T14:00:16.380Z,99511.78
2022-09-01T14:02:50.853Z,99506.97
2022-09-01T14:05:21.450Z,99515.03
2022-09-01T14:07:49.913Z,99515.69
2022-09-01T14:10:19.688Z,99510.00
2022-09-01T14:12:48.845Z,99510.44
2022-09-01T14:15:25.015Z,99501.09
2022-09-01T14:17:58.507Z,99503.31
2022-09-01T14:20:36.788Z,99494.34
2022-09-01T14:23:07.132Z,99503.03
2022-09-01T14:25:35.927Z,99498.94
2022-09-01T14:28:05.123Z,99480.94
2022-09-01T14:30:34.823Z,99483.00
2022-09-01T14:33:04.628Z,99479.72
2022-09-01T14:35:35.767Z,99472.75
2022-09-01T14:38:06.119Z,99456.38
2022-09-01T14:40:34.327Z,99453.94
2022-09-01T14:43:02.452Z,99456.00
2022-09-01T14:45:31.634Z,99444.56
2022-09-01T14:48:02.095Z,99463.22
2022-09-01T14:50:37.098Z,99456.50
2022-09-01T14:53:05.078Z,99462.19
2022-09-01T14:55:33.347Z,99472.06
2022-09-01T14:58:03.938Z,99469.38
2022-09-01T15:00:36.401Z,99474.13
2022-09-01T15:03:04.600Z,99461.09
2022-09-01T15:05:39.503Z,99466.19
2022-09-01T15:08:16.966Z,99465.00
2022-09-01T15:10:46.773Z,99458.53
2022-09-01T15:13:16.705Z,99463.22
2022-09-01T15:15:44.886Z,99460.56
2022-09-01T15:18:12.989Z,99456.25
2022-09-01T15:20:46.153Z,99450.91
2022-09-01T15:23:23.652Z,99448.47
2022-09-01T15:25:55.515Z,99447.50
2022-09-01T15:28:23.655Z,99453.00
2022-09-01T15:30:54.554Z,99442.63
2022-09-01T15:33:22.963Z,99438.47
2022-09-01T15:35:51.148Z,99434.25
2022-09-01T15:38:22.757Z,99437.56
2022-09-01T15:40:57.091Z,99440.81
2022-09-01T15:43:31.350Z,99443.72
2022-09-01T15:46:02.728Z,99440.44
2022-09-01T15:48:30.898Z,99431.25
2022-09-01T15:51:25.440Z,99434.78
2022-09-01T15:53:57.896Z,99428.25
2022-09-01T15:56:27.630Z,99429.72
2022-09-01T15:59:03.634Z,99432.59
2022-09-01T16:01:36.835Z,99424.66
2022-09-01T16:04:08.656Z,99424.47
2022-09-01T16:06:36.845Z,99407.34
2022-09-01T16:09:06.665Z,99416.16
2022-09-01T16:11:38.662Z,99413.13
2022-09-01T16:14:08.316Z,99412.34
2022-09-01T16:16:52.155Z,99400.91
2022-09-01T16:19:39.949Z,99407.69
2022-09-01T16:22:26.079Z,99400.78
2022-09-01T16:24:58.408Z,99399.59
2022-09-01T16:27:35.054Z,99399.25
2022-09-01T16:30:10.222Z,99407.44
2022-09-01T16:32:46.099Z,99399.94
2022-09-01T16:35:16.674Z,99403.84
2022-09-01T16:37:53.504Z,99409.63
2022-09-01T16:40:46.331Z,99401.06
2022-09-01T16:43:31.602Z,99392.47
2022-09-01T16:46:21.755Z,99397.19
2022-09-01T16:49:28.664Z,99396.19
2022-09-01T16:52:12.097Z,99405.63
2022-09-01T16:54:58.579Z,99411.78
2022-09-01T16:57:34.058Z,99411.81
2022-09-01T17:00:09.536Z,99408.34
2022-09-01T17:03:10.214Z,99415.50
2022-09-01T17:06:09.573Z,99446.00
2022-09-01T17:09:18.071Z,99449.72
2022-09-01T17:11:49.525Z,99448.03
2022-09-01T17:14:33.251Z,99457.88
2022-09-01T17:17:10.277Z,99467.31
2022-09-01T17:19:45.068Z,99462.63
2022-09-01T17:22:15.368Z,99471.81
2022-09-01T17:25:11.381Z,99474.28
2022-09-01T17:27:54.816Z,99482.25
2022-09-01T17:30:24.385Z,99474.06
2022-09-01T17:33:18.585Z,99477.16
2022-09-01T17:36:15.932Z,99481.44
2022-09-01T17:39:28.533Z,99470.81
2022-09-01T17:42:16.175Z,99493.50
2022-09-01T17:44:57.083Z,99503.94
2022-09-01T17:47:58.099Z,99485.31
2022-09-01T17:51:01.700Z,99481.41
2022-09-01T17:53:58.930Z,99482.22
2022-09-01T17:56:27.663Z,99474.06
2022-09-01T17:59:00.280Z,99466.06
2022-09-01T18:01:52.355Z,99456.88
2022-09-01T18:04:53.567Z,99462.19
2022-09-01T18:07:58.956Z,99458.53
2022-09-01T18:10:33.614Z,99455.47
2022-09-01T18:13:06.576Z,99454.22
2022-09-01T18:15:52.577Z,99436.44
2022-09-01T18:18:29.178Z,99429.69
2022-09-01T18:21:13.029Z,99433.38
2022-09-01T18:23:46.009Z,99406.00
2022-09-01T18:26:27.933Z,99439.69
2022-09-01T18:28:57.905Z,99438.69
2022-09-01T18:31:34.613Z,99449.91
2022-09-01T18:34:35.875Z,99438.25
2022-09-01T18:37:16.591Z,99443.78
2022-09-01T18:40:03.206Z,99439.28
2022-09-01T18:42:37.511Z,99439.69
2022-09-01T18:46:01.134Z,99436.59
2022-09-01T18:48:43.230Z,99428.19
2022-09-01T18:51:37.412Z,99431.25
2022-09-01T18:54:23.982Z,99421.88
2022-09-01T18:57:12.891Z,99420.63
2022-09-01T19:00:19.126Z,99418.38
2022-09-01T19:03:27.150Z,99424.72
2022-09-01T19:06:17.025Z,99413.28
2022-09-01T19:08:55.185Z,99422.25
2022-09-01T19:11:46.553Z,99417.31
2022-09-01T19:14:28.938Z,99363.56
2022-09-01T19:17:54.840Z,99416.31
2022-09-01T19:20:51.776Z,99411.22
2022-09-01T19:24:00.577Z,99420.81
2022-09-01T19:26:41.299Z,99440.56
2022-09-01T19:29:18.511Z,99441.94
2022-09-01T19:31:58.724Z,99440.03
2022-09-01T19:34:50.946Z,99433.91
2022-09-01T19:37:21.159Z,99439.22
2022-09-01T19:39:54.198Z,99432.09
2022-09-01T19:42:59.760Z,99405.09
2022-09-01T19:45:57.491Z,99421.13
2022-09-01T19:49:04.572Z,99429.00
2022-09-01T19:51:49.536Z,99436.72
2022-09-01T19:54:48.722Z,99441.78
2022-09-01T19:57:22.624Z,99452.53
2022-09-01T20:00:04.577Z,99447.63
2022-09-01T20:02:42.048Z,99451.47
2022-09-01T20:05:23.142Z,99461.41
2022-09-01T20:08:07.413Z,99459.47
2022-09-01T20:11:00.147Z,99469.56
2022-09-01T20:13:56.854Z,99472.63
2022-09-01T20:16:49.690Z,99484.69
2022-09-01T20:19:39.465Z,99489.19
2022-09-01T20:22:40.796Z,99504.72
2022-09-01T20:25:13.710Z,99504.72
2022-09-01T20:28:15.024Z,99505.34
2022-09-01T20:30:51.633Z,99516.75
2022-09-01T20:33:31.726Z,99523.50
2022-09-01T20:36:08.036Z,99517.63
2022-09-01T20:39:09.832Z,99519.47
2022-09-01T20:41:59.693Z,99526.19
2022-09-01T20:44:40.809Z,99525.00
2022-09-01T20:47:08.778Z,99532.38
2022-09-01T20:49:39.489Z,99536.66
2022-09-01T20:52:28.750Z,99539.78
2022-09-01T20:55:02.691Z,99542.66
2022-09-01T20:58:00.078Z,99547.97
2022-09-01T21:00:30.544Z,99547.78
2022-09-01T21:03:20.058Z,99556.75
2022-09-01T21:06:21.837Z,99560.84
2022-09-01T21:09:03.726Z,99567.16
2022-09-01T21:11:43.203Z,99568.41
2022-09-01T21:14:17.137Z,99575.16
2022-09-01T21:17:06.536Z,99582.91
2022-09-01T21:20:10.206Z,99585.31
2022-09-01T21:22:38.768Z,99585.31
2022-09-01T21:25:07.245Z,99597.50
2022-09-01T21:27:45.821Z,99592.72
2022-09-01T21:30:16.116Z,99601.38
2022-09-01T21:32:44.454Z,99597.59
2022-09-01T21:35:18.266Z,99606.84
2022-09-01T21:37:46.462Z,99610.75
2022-09-01T21:40:16.289Z,99628.00
2022-09-01T21:42:55.354Z,99633.22
2022-09-01T21:45:24.836Z,99637.78
2022-09-01T21:47:54.316Z,99649.81
2022-09-01T21:50:26.373Z,99642.91
2022-09-01T21:52:54.482Z,99661.06
2022-09-01T21:55:23.927Z,99662.06
2022-09-01T21:57:53.674Z,99671.09
2022-09-01T22:00:26.377Z,99681.38
2022-09-01T22:03:00.026Z,99694.94
2022-09-01T22:05:29.880Z,99700.00
2022-09-01T22:07:59.521Z,99696.81
2022-09-01T22:10:31.663Z,99707.28
2022-09-01T22:13:04.100Z,99725.59
2022-09-01T22:15:32.402Z,99715.91
2022-09-01T22:18:03.017Z,99731.28
2022-09-01T22:20:32.714Z,99730.53
2022-09-01T22:23:21.143Z,99752.38
2022-09-01T22:25:49.059Z,99747.31
2022-09-01T22:28:17.155Z,99763.88
2022-09-01T22:30:51.178Z,99765.91
2022-09-01T22:33:21.468Z,99775.66
2022-09-01T22:35:52.693Z,99781.94
2022-09-01T22:38:23.195Z,99786.75
2022-09-01T22:40:58.011Z,99795.31
2022-09-01T22:43:30.469Z,99793.50
2022-09-01T22:46:00.001Z,99808.53
2022-09-01T22:48:29.638Z,99797.50
2022-09-01T22:51:00.470Z,99810.66
2022-09-01T22:53:31.920Z,99802.28
2022-09-01T22:55:59.924Z,99811.34
2022-09-01T22:58:29.346Z,99801.44
2022-09-01T23:00:59.937Z,99814.28
2022-09-01T23:03:27.964Z,99822.69
2022-09-01T23:06:09.979Z,99828.28
2022-09-01T23:08:39.421Z,99841.97
2022-09-01T23:11:08.862Z,99840.97
2022-09-01T23:13:39.910Z,99844.28
2022-09-01T23:16:11.310Z,99839.97
2022-09-01T23:18:42.193Z,99847.72
2022-09-01T23:21:14.003Z,99866.00
2022-09-01T23:23:43.726Z,99865.44
2022-09-01T23:26:14.153Z,99866.75
2022-09-01T23:28:45.836Z,99875.31
2022-09-01T23:31:18.029Z,99870.84
2022-09-01T23:33:47.366Z,99875.75
2022-09-01T23:36:19.581Z,99886.63
2022-09-01T23:38:49.657Z,99890.91
2022-09-01T23:41:25.829Z,99885.63
2022-09-01T23:43:54.269Z,99899.75
2022-09-01T23:46:25.962Z,99907.63
2022-09-01T23:48:56.152Z,99914.97
2022-09-01T23:54:12.736Z,99911.44
2022-09-01T23:56:41.557Z,99934.41
2022-09-01T23:59:10.453Z,99936.69
